sensor_id;sensor_type;location;lat;lon;timestamp;pressure;altitude;pressure_sealevel;temperature;humidity
75401;BME280;63974;47.538;18.972;2023-09-08T00:00:47;100785.22;;;16.79;67.52
75401;BME280;63974;47.538;18.972;2023-09-08T00:03:50;100788.66;;;16.79;68.06
75401;BME280;63974;47.538;18.972;2023-09-08T00:06:53;100794.06;;;16.71;68.00
75401;BME280;63974;47.538;18.972;2023-09-08T00:09:56;100791.84;;;16.68;67.59
75401;BME280;63974;47.538;18.972;2023-09-08T00:12:59;100797.47;;;16.72;67.41
75401;BME280;63974;47.538;18.972;2023-09-08T00:16:02;100795.06;;;16.70;67.60
75401;BME280;63974;47.538;18.972;2023-09-08T00:19:05;100801.09;;;16.71;67.68
75401;BME280;63974;47.538;18.972;2023-09-08T00:22:08;100802.94;;;16.70;67.61
75401;BME280;63974;47.538;18.972;2023-09-08T00:25:11;100798.66;;;16.63;67.85
75401;BME280;63974;47.538;18.972;2023-09-08T00:28:13;100796.44;;;16.66;67.70
75401;BME280;63974;47.538;18.972;2023-09-08T00:31:16;100803.13;;;16.69;68.06
75401;BME280;63974;47.538;18.972;2023-09-08T00:34:19;100797.44;;;16.65;67.90
75401;BME280;63974;47.538;18.972;2023-09-08T00:37:22;100799.31;;;16.78;67.82
75401;BME280;63974;47.538;18.972;2023-09-08T00:40:27;100788.84;;;16.78;67.35
75401;BME280;63974;47.538;18.972;2023-09-08T00:43:30;100788.47;;;16.87;67.11
75401;BME280;63974;47.538;18.972;2023-09-08T00:46:33;100792.31;;;16.91;66.93
75401;BME280;63974;47.538;18.972;2023-09-08T00:49:36;100792.72;;;16.95;66.79
75401;BME280;63974;47.538;18.972;2023-09-08T00:52:39;100793.13;;;16.98;66.74
75401;BME280;63974;47.538;18.972;2023-09-08T00:55:42;100792.72;;;17.01;66.77
75401;BME280;63974;47.538;18.972;2023-09-08T00:58:45;100787.91;;;17.05;66.90
75401;BME280;63974;47.538;18.972;2023-09-08T01:01:48;100793.38;;;17.03;66.71
75401;BME280;63974;47.538;18.972;2023-09-08T01:04:51;100788.91;;;17.04;67.15
75401;BME280;63974;47.538;18.972;2023-09-08T01:07:55;100771.75;;;17.01;67.11
75401;BME280;63974;47.538;18.972;2023-09-08T01:10:58;100781.03;;;17.04;66.88
75401;BME280;63974;47.538;18.972;2023-09-08T01:14:01;100781.03;;;16.97;67.53
75401;BME280;63974;47.538;18.972;2023-09-08T01:17:04;100777.22;;;17.00;66.93
75401;BME280;63974;47.538;18.972;2023-09-08T01:20:28;100780.25;;;17.03;67.18
75401;BME280;63974;47.538;18.972;2023-09-08T01:27:34;100773.72;;;16.86;68.17
75401;BME280;63974;47.538;18.972;2023-09-08T01:30:38;100775.56;;;16.86;68.65
75401;BME280;63974;47.538;18.972;2023-09-08T01:33:42;100781.19;;;16.83;69.03
75401;BME280;63974;47.538;18.972;2023-09-08T01:36:46;100782.75;;;16.77;69.17
75401;BME280;63974;47.538;18.972;2023-09-08T01:39:49;100776.50;;;16.72;69.00
75401;BME280;63974;47.538;18.972;2023-09-08T01:42:53;100769.81;;;16.63;69.64
75401;BME280;63974;47.538;18.972;2023-09-08T01:45:55;100778.84;;;16.54;70.20
75401;BME280;63974;47.538;18.972;2023-09-08T01:48:58;100776.19;;;16.47;69.89
75401;BME280;63974;47.538;18.972;2023-09-08T01:52:02;100776.19;;;16.47;70.37
75401;BME280;63974;47.538;18.972;2023-09-08T01:55:05;100781.63;;;16.46;70.23
75401;BME280;63974;47.538;18.972;2023-09-08T01:58:08;100784.25;;;16.46;70.63
75401;BME280;63974;47.538;18.972;2023-09-08T02:01:10;100778.56;;;16.36;70.82
75401;BME280;63974;47.538;18.972;2023-09-08T02:04:13;100784.38;;;16.31;71.02
75401;BME280;63974;47.538;18.972;2023-09-08T02:07:16;100775.25;;;16.27;71.43
75401;BME280;63974;47.538;18.972;2023-09-08T02:10:19;100783.06;;;16.21;71.67
75401;BME280;63974;47.538;18.972;2023-09-08T02:13:23;100784.53;;;15.96;72.65
75401;BME280;63974;47.538;18.972;2023-09-08T02:16:26;100775.59;;;15.84;73.37
75401;BME280;63974;47.538;18.972;2023-09-08T02:19:29;100778.19;;;15.84;72.91
75401;BME280;63974;47.538;18.972;2023-09-08T02:22:32;100785.06;;;15.85;73.05
75401;BME280;63974;47.538;18.972;2023-09-08T02:25:34;100772.69;;;15.73;73.61
75401;BME280;63974;47.538;18.972;2023-09-08T02:28:38;100781.78;;;15.76;73.47
75401;BME280;63974;47.538;18.972;2023-09-08T02:31:40;100771.25;;;15.70;73.58
75401;BME280;63974;47.538;18.972;2023-09-08T02:34:43;100781.34;;;15.73;73.60
75401;BME280;63974;47.538;18.972;2023-09-08T02:37:49;100773.47;;;15.73;73.60
75401;BME280;63974;47.538;18.972;2023-09-08T02:40:52;100771.03;;;15.65;73.55
75401;BME280;63974;47.538;18.972;2023-09-08T02:43:55;100772.06;;;15.71;73.62
75401;BME280;63974;47.538;18.972;2023-09-08T02:46:58;100776.94;;;15.73;73.71
75401;BME280;63974;47.538;18.972;2023-09-08T02:50:01;100782.16;;;15.73;73.61
75401;BME280;63974;47.538;18.972;2023-09-08T02:53:07;100777.66;;;15.68;73.77
75401;BME280;63974;47.538;18.972;2023-09-08T02:56:10;100776.81;;;15.61;73.83
75401;BME280;63974;47.538;18.972;2023-09-08T02:59:13;100777.63;;;15.61;73.97
75401;BME280;63974;47.538;18.972;2023-09-08T03:02:16;100778.66;;;15.67;73.77
75401;BME280;63974;47.538;18.972;2023-09-08T03:05:19;100776.66;;;15.68;73.90
75401;BME280;63974;47.538;18.972;2023-09-08T03:08:23;100772.25;;;15.69;74.04
75401;BME280;63974;47.538;18.972;2023-09-08T03:11:25;100772.44;;;15.68;73.67
75401;BME280;63974;47.538;18.972;2023-09-08T03:14:28;100774.25;;;15.67;74.28
75401;BME280;63974;47.538;18.972;2023-09-08T03:17:31;100781.63;;;15.57;74.13
75401;BME280;63974;47.538;18.972;2023-09-08T03:20:34;100772.16;;;15.56;74.19
75401;BME280;63974;47.538;18.972;2023-09-08T03:23:38;100770.03;;;15.45;74.69
75401;BME280;63974;47.538;18.972;2023-09-08T03:26:41;100771.72;;;15.53;74.59
75401;BME280;63974;47.538;18.972;2023-09-08T03:29:44;100758.44;;;15.54;74.12
75401;BME280;63974;47.538;18.972;2023-09-08T03:32:46;100774.25;;;15.67;73.95
75401;BME280;63974;47.538;18.972;2023-09-08T03:35:49;100772.88;;;15.71;74.02
75401;BME280;63974;47.538;18.972;2023-09-08T03:38:52;100771.88;;;15.72;73.57
75401;BME280;63974;47.538;18.972;2023-09-08T03:41:55;100771.81;;;15.66;74.20
75401;BME280;63974;47.538;18.972;2023-09-08T03:44:58;100778.31;;;15.70;74.19
75401;BME280;63974;47.538;18.972;2023-09-08T03:48:01;100778.31;;;15.70;74.23
75401;BME280;63974;47.538;18.972;2023-09-08T03:51:04;100768.53;;;15.57;74.42
75401;BME280;63974;47.538;18.972;2023-09-08T03:54:07;100782.84;;;15.61;74.58
75401;BME280;63974;47.538;18.972;2023-09-08T03:57:09;100783.41;;;15.57;74.54
75401;BME280;63974;47.538;18.972;2023-09-08T04:00:13;100781.75;;;15.49;74.94
75401;BME280;63974;47.538;18.972;2023-09-08T04:03:21;100785.34;;;15.48;75.10
75401;BME280;63974;47.538;18.972;2023-09-08T04:06:24;100782.88;;;15.40;75.89
75401;BME280;63974;47.538;18.972;2023-09-08T04:09:27;100783.53;;;15.28;76.27
75401;BME280;63974;47.538;18.972;2023-09-08T04:12:30;100780.00;;;15.35;76.11
75401;BME280;63974;47.538;18.972;2023-09-08T04:15:33;100780.22;;;15.34;76.03
75401;BME280;63974;47.538;18.972;2023-09-08T04:18:36;100788.69;;;15.36;75.72
75401;BME280;63974;47.538;18.972;2023-09-08T04:21:40;100782.75;;;15.27;76.02
75401;BME280;63974;47.538;18.972;2023-09-08T04:24:43;100795.25;;;15.32;76.00
75401;BME280;63974;47.538;18.972;2023-09-08T04:27:47;100792.34;;;15.41;75.26
75401;BME280;63974;47.538;18.972;2023-09-08T04:30:50;100787.97;;;15.48;75.29
75401;BME280;63974;47.538;18.972;2023-09-08T04:33:53;100797.50;;;15.56;75.24
75401;BME280;63974;47.538;18.972;2023-09-08T04:36:56;100787.09;;;15.62;75.08
75401;BME280;63974;47.538;18.972;2023-09-08T04:39:59;100789.53;;;15.64;74.98
75401;BME280;63974;47.538;18.972;2023-09-08T04:43:02;100788.97;;;15.68;74.81
75401;BME280;63974;47.538;18.972;2023-09-08T04:46:05;100790.59;;;15.69;74.93
75401;BME280;63974;47.538;18.972;2023-09-08T04:49:08;100776.88;;;15.67;74.94
75401;BME280;63974;47.538;18.972;2023-09-08T04:52:11;100789.81;;;15.75;74.85
75401;BME280;63974;47.538;18.972;2023-09-08T04:55:14;100789.94;;;15.88;74.65
75401;BME280;63974;47.538;18.972;2023-09-08T04:58:17;100794.56;;;15.92;74.19
75401;BME280;63974;47.538;18.972;2023-09-08T05:01:20;100797.84;;;15.94;74.46
75401;BME280;63974;47.538;18.972;2023-09-08T05:04:23;100806.88;;;15.92;74.66
75401;BME280;63974;47.538;18.972;2023-09-08T05:07:26;100803.31;;;15.99;74.48
75401;BME280;63974;47.538;18.972;2023-09-08T05:10:29;100812.22;;;16.05;74.06
75401;BME280;63974;47.538;18.972;2023-09-08T05:13:32;100809.38;;;16.00;74.68
75401;BME280;63974;47.538;18.972;2023-09-08T05:16:38;100818.72;;;16.15;75.45
75401;BME280;63974;47.538;18.972;2023-09-08T05:19:56;100822.25;;;16.29;74.75
75401;BME280;63974;47.538;18.972;2023-09-08T05:22:59;100820.91;;;16.39;74.38
75401;BME280;63974;47.538;18.972;2023-09-08T05:26:01;100823.22;;;16.49;74.09
75401;BME280;63974;47.538;18.972;2023-09-08T05:29:05;100821.41;;;16.56;73.94
75401;BME280;63974;47.538;18.972;2023-09-08T05:32:08;100829.53;;;16.61;74.14
75401;BME280;63974;47.538;18.972;2023-09-08T05:35:12;100828.28;;;16.57;74.50
75401;BME280;63974;47.538;18.972;2023-09-08T05:38:15;100835.19;;;16.71;74.03
75401;BME280;63974;47.538;18.972;2023-09-08T05:41:18;100830.81;;;16.84;74.12
75401;BME280;63974;47.538;18.972;2023-09-08T05:44:21;100821.59;;;17.01;73.88
75401;BME280;63974;47.538;18.972;2023-09-08T05:47:24;100828.13;;;17.18;74.00
75401;BME280;63974;47.538;18.972;2023-09-08T05:50:28;100838.44;;;17.33;74.07
75401;BME280;63974;47.538;18.972;2023-09-08T05:53:31;100812.63;;;17.36;73.93
75401;BME280;63974;47.538;18.972;2023-09-08T05:56:37;100825.00;;;17.55;73.83
75401;BME280;63974;47.538;18.972;2023-09-08T05:59:40;100831.03;;;17.75;72.98
75401;BME280;63974;47.538;18.972;2023-09-08T06:02:43;100846.00;;;17.81;72.23
75401;BME280;63974;47.538;18.972;2023-09-08T06:05:49;100842.19;;;17.97;71.50
75401;BME280;63974;47.538;18.972;2023-09-08T06:08:52;100831.84;;;18.02;69.87
75401;BME280;63974;47.538;18.972;2023-09-08T06:11:55;100834.28;;;18.16;69.73
75401;BME280;63974;47.538;18.972;2023-09-08T06:14:58;100850.44;;;18.26;69.78
75401;BME280;63974;47.538;18.972;2023-09-08T06:18:01;100839.34;;;18.37;69.10
75401;BME280;63974;47.538;18.972;2023-09-08T06:21:07;100844.16;;;18.46;68.74
75401;BME280;63974;47.538;18.972;2023-09-08T06:24:10;100850.19;;;18.53;68.90
75401;BME280;63974;47.538;18.972;2023-09-08T06:27:14;100832.00;;;18.58;68.47
75401;BME280;63974;47.538;18.972;2023-09-08T06:30:18;100831.16;;;18.64;68.31
75401;BME280;63974;47.538;18.972;2023-09-08T06:33:21;100826.47;;;18.66;67.10
75401;BME280;63974;47.538;18.972;2023-09-08T06:36:25;100836.22;;;18.66;67.58
75401;BME280;63974;47.538;18.972;2023-09-08T06:39:28;100831.53;;;18.68;67.30
75401;BME280;63974;47.538;18.972;2023-09-08T06:42:31;100827.84;;;18.82;67.30
75401;BME280;63974;47.538;18.972;2023-09-08T06:45:48;100839.91;;;18.96;67.53
75401;BME280;63974;47.538;18.972;2023-09-08T06:48:57;100820.72;;;18.95;66.45
75401;BME280;63974;47.538;18.972;2023-09-08T06:52:00;100826.06;;;19.20;66.31
75401;BME280;63974;47.538;18.972;2023-09-08T06:55:03;100835.88;;;19.37;64.93
75401;BME280;63974;47.538;18.972;2023-09-08T06:58:07;100835.47;;;19.40;65.31
75401;BME280;63974;47.538;18.972;2023-09-08T07:01:10;100835.59;;;19.52;63.61
75401;BME280;63974;47.538;18.972;2023-09-08T07:04:14;100832.44;;;19.68;63.72
75401;BME280;63974;47.538;18.972;2023-09-08T07:07:17;100835.41;;;19.78;63.59
75401;BME280;63974;47.538;18.972;2023-09-08T07:10:23;100824.16;;;19.89;63.22
75401;BME280;63974;47.538;18.972;2023-09-08T07:13:27;100822.63;;;19.99;61.67
75401;BME280;63974;47.538;18.972;2023-09-08T07:16:31;100826.00;;;20.13;62.37
75401;BME280;63974;47.538;18.972;2023-09-08T07:19:36;100835.19;;;20.28;61.92
75401;BME280;63974;47.538;18.972;2023-09-08T07:22:39;100824.69;;;20.40;61.15
75401;BME280;63974;47.538;18.972;2023-09-08T07:25:48;100819.72;;;20.49;59.89
75401;BME280;63974;47.538;18.972;2023-09-08T07:28:52;100828.38;;;20.74;60.37
75401;BME280;63974;47.538;18.972;2023-09-08T07:31:55;100830.00;;;20.93;60.08
75401;BME280;63974;47.538;18.972;2023-09-08T07:34:58;100825.69;;;21.10;58.93
75401;BME280;63974;47.538;18.972;2023-09-08T07:38:01;100819.88;;;21.20;58.22
75401;BME280;63974;47.538;18.972;2023-09-08T07:41:04;100816.72;;;21.29;58.39
75401;BME280;63974;47.538;18.972;2023-09-08T07:44:07;100823.84;;;21.40;57.05
75401;BME280;63974;47.538;18.972;2023-09-08T07:47:10;100818.50;;;21.58;56.15
75401;BME280;63974;47.538;18.972;2023-09-08T07:50:18;100817.16;;;21.67;56.19
75401;BME280;63974;47.538;18.972;2023-09-08T07:53:22;100822.78;;;21.71;57.08
75401;BME280;63974;47.538;18.972;2023-09-08T07:56:25;100822.03;;;21.93;55.67
75401;BME280;63974;47.538;18.972;2023-09-08T07:59:28;100829.25;;;22.09;54.75
75401;BME280;63974;47.538;18.972;2023-09-08T08:02:30;100824.66;;;22.28;53.70
75401;BME280;63974;47.538;18.972;2023-09-08T08:05:33;100828.31;;;22.38;53.51
75401;BME280;63974;47.538;18.972;2023-09-08T08:08:36;100822.81;;;22.51;53.32
75401;BME280;63974;47.538;18.972;2023-09-08T08:12:01;100821.03;;;22.68;52.53
75401;BME280;63974;47.538;18.972;2023-09-08T08:15:04;100816.88;;;22.84;52.04
75401;BME280;63974;47.538;18.972;2023-09-08T08:18:07;100811.66;;;22.88;50.91
75401;BME280;63974;47.538;18.972;2023-09-08T08:21:12;100809.97;;;23.10;50.35
75401;BME280;63974;47.538;18.972;2023-09-08T08:24:15;100812.13;;;23.25;51.37
75401;BME280;63974;47.538;18.972;2023-09-08T08:27:18;100806.41;;;23.33;49.87
75401;BME280;63974;47.538;18.972;2023-09-08T08:30:22;100811.09;;;23.42;49.03
75401;BME280;63974;47.538;18.972;2023-09-08T08:33:25;100808.91;;;23.56;49.24
75401;BME280;63974;47.538;18.972;2023-09-08T08:36:31;100802.75;;;23.67;49.48
75401;BME280;63974;47.538;18.972;2023-09-08T08:39:34;100809.59;;;23.79;48.19
75401;BME280;63974;47.538;18.972;2023-09-08T08:42:37;100810.72;;;24.00;48.33
75401;BME280;63974;47.538;18.972;2023-09-08T08:45:41;100807.47;;;24.14;48.62
75401;BME280;63974;47.538;18.972;2023-09-08T08:48:46;100805.25;;;24.28;44.94
75401;BME280;63974;47.538;18.972;2023-09-08T08:51:51;100797.34;;;24.33;44.78
75401;BME280;63974;47.538;18.972;2023-09-08T08:54:56;100805.63;;;24.53;43.44
75401;BME280;63974;47.538;18.972;2023-09-08T08:58:03;100802.91;;;24.69;44.13
75401;BME280;63974;47.538;18.972;2023-09-08T09:01:07;100800.06;;;24.76;43.29
75401;BME280;63974;47.538;18.972;2023-09-08T09:04:16;100794.88;;;24.86;43.27
75401;BME280;63974;47.538;18.972;2023-09-08T09:07:20;100794.22;;;25.00;43.09
75401;BME280;63974;47.538;18.972;2023-09-08T09:10:23;100793.25;;;25.11;43.07
75401;BME280;63974;47.538;18.972;2023-09-08T09:13:26;100802.06;;;25.38;42.67
75401;BME280;63974;47.538;18.972;2023-09-08T09:16:28;100784.31;;;25.43;41.77
75401;BME280;63974;47.538;18.972;2023-09-08T09:19:31;100788.13;;;25.57;40.92
75401;BME280;63974;47.538;18.972;2023-09-08T09:22:38;100783.34;;;25.59;42.08
75401;BME280;63974;47.538;18.972;2023-09-08T09:25:41;100793.09;;;25.80;40.44
75401;BME280;63974;47.538;18.972;2023-09-08T09:28:47;100788.00;;;25.74;40.82
75401;BME280;63974;47.538;18.972;2023-09-08T09:32:02;100789.25;;;25.66;39.97
75401;BME280;63974;47.538;18.972;2023-09-08T09:35:08;100786.28;;;25.94;40.62
75401;BME280;63974;47.538;18.972;2023-09-08T09:38:12;100785.31;;;26.10;39.72
75401;BME280;63974;47.538;18.972;2023-09-08T09:41:15;100781.66;;;26.26;39.52
75401;BME280;63974;47.538;18.972;2023-09-08T09:44:18;100780.44;;;26.49;39.11
75401;BME280;63974;47.538;18.972;2023-09-08T09:47:21;100793.25;;;26.47;40.23
75401;BME280;63974;47.538;18.972;2023-09-08T09:50:43;100777.59;;;26.60;39.25
75401;BME280;63974;47.538;18.972;2023-09-08T09:53:46;100773.03;;;26.56;39.08
75401;BME280;63974;47.538;18.972;2023-09-08T09:56:51;100764.84;;;26.67;38.32
75401;BME280;63974;47.538;18.972;2023-09-08T09:59:54;100775.00;;;26.85;38.17
75401;BME280;63974;47.538;18.972;2023-09-08T10:02:58;100761.94;;;26.89;38.29
75401;BME280;63974;47.538;18.972;2023-09-08T10:06:02;100765.97;;;27.06;35.98
75401;BME280;63974;47.538;18.972;2023-09-08T10:09:06;100763.59;;;27.10;36.17
75401;BME280;63974;47.538;18.972;2023-09-08T10:12:17;100756.66;;;27.19;36.22
75401;BME280;63974;47.538;18.972;2023-09-08T10:15:23;100757.75;;;27.28;35.83
75401;BME280;63974;47.538;18.972;2023-09-08T10:18:26;100755.09;;;27.38;34.75
75401;BME280;63974;47.538;18.972;2023-09-08T10:21:30;100738.56;;;27.36;35.33
75401;BME280;63974;47.538;18.972;2023-09-08T10:24:37;100746.28;;;27.42;33.75
75401;BME280;63974;47.538;18.972;2023-09-08T10:27:41;100748.41;;;27.45;34.06
75401;BME280;63974;47.538;18.972;2023-09-08T10:30:45;100743.59;;;27.47;34.91
75401;BME280;63974;47.538;18.972;2023-09-08T10:33:49;100736.91;;;27.65;33.25
75401;BME280;63974;47.538;18.972;2023-09-08T10:36:52;100731.34;;;27.76;32.79
75401;BME280;63974;47.538;18.972;2023-09-08T10:40:24;100730.78;;;27.79;32.26
75401;BME280;63974;47.538;18.972;2023-09-08T10:43:29;100723.31;;;27.86;33.16
75401;BME280;63974;47.538;18.972;2023-09-08T10:46:34;100721.91;;;27.98;32.87
75401;BME280;63974;47.538;18.972;2023-09-08T10:49:38;100720.88;;;27.94;33.27
75401;BME280;63974;47.538;18.972;2023-09-08T10:52:41;100719.03;;;27.80;32.50
75401;BME280;63974;47.538;18.972;2023-09-08T10:55:49;100723.31;;;27.81;32.49
75401;BME280;63974;47.538;18.972;2023-09-08T10:59:15;100714.75;;;27.89;31.87
75401;BME280;63974;47.538;18.972;2023-09-08T11:02:50;100719.25;;;27.98;33.53
75401;BME280;63974;47.538;18.972;2023-09-08T11:05:53;100724.31;;;28.05;31.84
75401;BME280;63974;47.538;18.972;2023-09-08T11:09:06;100721.91;;;28.03;32.18
75401;BME280;63974;47.538;18.972;2023-09-08T11:12:11;100715.44;;;28.19;31.23
75401;BME280;63974;47.538;18.972;2023-09-08T11:15:14;100709.97;;;27.66;31.74
75401;BME280;63974;47.538;18.972;2023-09-08T11:18:17;100712.06;;;27.94;32.04
75401;BME280;63974;47.538;18.972;2023-09-08T11:21:20;100699.78;;;27.98;31.47
75401;BME280;63974;47.538;18.972;2023-09-08T11:24:23;100706.13;;;28.12;31.34
75401;BME280;63974;47.538;18.972;2023-09-08T11:27:27;100698.56;;;28.29;31.19
75401;BME280;63974;47.538;18.972;2023-09-08T11:30:31;100695.13;;;28.23;30.80
75401;BME280;63974;47.538;18.972;2023-09-08T11:33:35;100689.50;;;28.25;29.97
75401;BME280;63974;47.538;18.972;2023-09-08T11:36:43;100694.41;;;28.03;30.58
75401;BME280;63974;47.538;18.972;2023-09-08T11:39:46;100683.13;;;28.16;31.71
75401;BME280;63974;47.538;18.972;2023-09-08T11:42:49;100692.66;;;28.42;30.67
75401;BME280;63974;47.538;18.972;2023-09-08T11:45:52;100685.66;;;28.46;31.07
75401;BME280;63974;47.538;18.972;2023-09-08T11:48:55;100685.66;;;27.92;30.82
75401;BME280;63974;47.538;18.972;2023-09-08T11:51:58;100682.19;;;27.82;30.90
75401;BME280;63974;47.538;18.972;2023-09-08T11:55:01;100672.50;;;28.06;30.76
75401;BME280;63974;47.538;18.972;2023-09-08T11:58:09;100674.00;;;28.32;31.17
75401;BME280;63974;47.538;18.972;2023-09-08T12:01:12;100669.13;;;28.44;30.82
75401;BME280;63974;47.538;18.972;2023-09-08T12:04:18;100668.56;;;28.52;30.54
75401;BME280;63974;47.538;18.972;2023-09-08T12:07:22;100662.78;;;28.73;30.66
75401;BME280;63974;47.538;18.972;2023-09-08T12:10:25;100653.94;;;28.78;30.86
75401;BME280;63974;47.538;18.972;2023-09-08T12:13:28;100650.53;;;28.67;29.88
75401;BME280;63974;47.538;18.972;2023-09-08T12:16:31;100648.31;;;28.79;30.13
75401;BME280;63974;47.538;18.972;2023-09-08T12:19:35;100640.69;;;28.63;31.04
75401;BME280;63974;47.538;18.972;2023-09-08T12:22:50;100641.13;;;28.36;30.95
75401;BME280;63974;47.538;18.972;2023-09-08T12:25:53;100637.69;;;28.21;30.66
75401;BME280;63974;47.538;18.972;2023-09-08T12:28:56;100636.34;;;28.23;30.71
75401;BME280;63974;47.538;18.972;2023-09-08T12:31:59;100635.66;;;28.51;30.71
75401;BME280;63974;47.538;18.972;2023-09-08T12:35:03;100628.97;;;28.54;30.76
75401;BME280;63974;47.538;18.972;2023-09-08T12:38:06;100622.75;;;28.68;30.97
75401;BME280;63974;47.538;18.972;2023-09-08T12:41:10;100625.28;;;28.83;30.73
75401;BME280;63974;47.538;18.972;2023-09-08T12:44:12;100624.81;;;28.38;32.30
75401;BME280;63974;47.538;18.972;2023-09-08T12:47:15;100619.78;;;28.26;31.49
75401;BME280;63974;47.538;18.972;2023-09-08T12:50:18;100614.81;;;28.10;32.01
75401;BME280;63974;47.538;18.972;2023-09-08T12:53:22;100619.28;;;28.19;31.65
75401;BME280;63974;47.538;18.972;2023-09-08T12:56:26;100610.22;;;28.15;31.53
75401;BME280;63974;47.538;18.972;2023-09-08T12:59:28;100610.69;;;28.27;31.23
75401;BME280;63974;47.538;18.972;2023-09-08T13:02:31;100605.25;;;28.47;31.96
75401;BME280;63974;47.538;18.972;2023-09-08T13:05:34;100603.66;;;28.46;30.56
75401;BME280;63974;47.538;18.972;2023-09-08T13:08:38;100601.81;;;28.42;31.33
75401;BME280;63974;47.538;18.972;2023-09-08T13:11:41;100588.38;;;28.52;31.23
75401;BME280;63974;47.538;18.972;2023-09-08T13:14:44;100594.13;;;28.69;31.75
75401;BME280;63974;47.538;18.972;2023-09-08T13:17:47;100592.84;;;28.61;32.13
75401;BME280;63974;47.538;18.972;2023-09-08T13:20:50;100593.22;;;28.50;32.99
75401;BME280;63974;47.538;18.972;2023-09-08T13:23:53;100590.53;;;28.50;31.81
75401;BME280;63974;47.538;18.972;2023-09-08T13:26:55;100586.22;;;28.54;32.96
75401;BME280;63974;47.538;18.972;2023-09-08T13:30:12;100584.25;;;28.36;33.43
75401;BME280;63974;47.538;18.972;2023-09-08T13:33:15;100583.09;;;27.98;33.00
75401;BME280;63974;47.538;18.972;2023-09-08T13:36:18;100582.47;;;28.11;32.90
75401;BME280;63974;47.538;18.972;2023-09-08T13:39:21;100587.09;;;28.01;32.48
75401;BME280;63974;47.538;18.972;2023-09-08T13:42:24;100581.97;;;28.09;32.84
75401;BME280;63974;47.538;18.972;2023-09-08T13:45:27;100582.63;;;27.87;33.01
75401;BME280;63974;47.538;18.972;2023-09-08T13:48:29;100574.66;;;27.77;33.18
75401;BME280;63974;47.538;18.972;2023-09-08T13:51:33;100578.56;;;27.94;33.10
75401;BME280;63974;47.538;18.972;2023-09-08T13:54:37;100576.84;;;27.55;33.29
75401;BME280;63974;47.538;18.972;2023-09-08T13:57:41;100575.13;;;27.93;32.53
75401;BME280;63974;47.538;18.972;2023-09-08T14:00:45;100562.66;;;28.22;31.61
75401;BME280;63974;47.538;18.972;2023-09-08T14:03:53;100564.59;;;28.12;31.83
75401;BME280;63974;47.538;18.972;2023-09-08T14:07:05;100574.88;;;29.00;30.58
75401;BME280;63974;47.538;18.972;2023-09-08T14:10:17;100567.53;;;29.39;29.57
75401;BME280;63974;47.538;18.972;2023-09-08T14:13:39;100550.88;;;29.19;30.64
75401;BME280;63974;47.538;18.972;2023-09-08T14:16:42;100547.25;;;29.33;30.48
75401;BME280;63974;47.538;18.972;2023-09-08T14:19:45;100558.47;;;29.35;30.58
75401;BME280;63974;47.538;18.972;2023-09-08T14:22:48;100546.63;;;29.41;31.11
75401;BME280;63974;47.538;18.972;2023-09-08T14:25:51;100537.97;;;29.73;30.33
75401;BME280;63974;47.538;18.972;2023-09-08T14:28:55;100541.09;;;30.17;30.98
75401;BME280;63974;47.538;18.972;2023-09-08T14:31:57;100539.84;;;30.28;30.46
75401;BME280;63974;47.538;18.972;2023-09-08T14:35:00;100533.03;;;29.98;30.52
75401;BME280;63974;47.538;18.972;2023-09-08T14:38:03;100542.47;;;29.96;30.58
75401;BME280;63974;47.538;18.972;2023-09-08T14:41:06;100537.72;;;30.11;29.88
75401;BME280;63974;47.538;18.972;2023-09-08T14:44:09;100535.03;;;30.11;29.83
75401;BME280;63974;47.538;18.972;2023-09-08T14:47:12;100532.56;;;30.15;29.87
75401;BME280;63974;47.538;18.972;2023-09-08T14:50:15;100528.66;;;30.07;28.88
75401;BME280;63974;47.538;18.972;2023-09-08T14:53:18;100531.97;;;29.81;30.27
75401;BME280;63974;47.538;18.972;2023-09-08T14:56:21;100537.19;;;29.49;30.07
75401;BME280;63974;47.538;18.972;2023-09-08T14:59:24;100535.19;;;29.36;30.62
75401;BME280;63974;47.538;18.972;2023-09-08T15:02:26;100539.75;;;29.12;30.96
75401;BME280;63974;47.538;18.972;2023-09-08T15:05:30;100532.63;;;29.02;30.75
75401;BME280;63974;47.538;18.972;2023-09-08T15:08:34;100530.59;;;28.89;30.91
75401;BME280;63974;47.538;18.972;2023-09-08T15:11:37;100520.69;;;28.61;30.59
75401;BME280;63974;47.538;18.972;2023-09-08T15:14:40;100528.25;;;28.54;31.04
75401;BME280;63974;47.538;18.972;2023-09-08T15:17:43;100524.06;;;28.43;31.22
75401;BME280;63974;47.538;18.972;2023-09-08T15:20:52;100518.00;;;28.33;31.38
75401;BME280;63974;47.538;18.972;2023-09-08T15:23:56;100521.56;;;28.18;31.62
75401;BME280;63974;47.538;18.972;2023-09-08T15:26:58;100514.97;;;28.06;32.45
75401;BME280;63974;47.538;18.972;2023-09-08T15:30:03;100519.38;;;27.87;32.21
75401;BME280;63974;47.538;18.972;2023-09-08T15:33:06;100509.00;;;27.71;32.04
75401;BME280;63974;47.538;18.972;2023-09-08T15:36:09;100525.06;;;27.61;33.25
75401;BME280;63974;47.538;18.972;2023-09-08T15:39:12;100521.41;;;27.47;33.55
75401;BME280;63974;47.538;18.972;2023-09-08T15:42:15;100512.63;;;27.36;33.52
75401;BME280;63974;47.538;18.972;2023-09-08T15:45:18;100510.84;;;27.17;33.76
75401;BME280;63974;47.538;18.972;2023-09-08T15:48:21;100529.25;;;27.13;33.99
75401;BME280;63974;47.538;18.972;2023-09-08T15:51:24;100514.84;;;26.99;34.16
75401;BME280;63974;47.538;18.972;2023-09-08T15:54:27;100517.78;;;26.93;34.32